createdAt,value
2023-02-07T00:00:05.955Z,-2.59
2023-02-07T00:00:36.466Z,-2.59
2023-02-07T00:01:08.915Z,-2.59
2023-02-07T00:01:39.138Z,-2.69
2023-02-07T00:02:10.504Z,-2.69
2023-02-07T00:02:41.108Z,-2.69
2023-02-07T00:03:42.723Z,-2.69
2023-02-07T00:04:13.643Z,-2.69
2023-02-07T00:04:44.958Z,-2.69
2023-02-07T00:05:46.489Z,-2.69
2023-02-07T00:06:17.893Z,-2.69
2023-02-07T00:06:49.763Z,-2.69
2023-02-07T00:07:19.984Z,-2.69
2023-02-07T00:07:50.641Z,-2.69
2023-02-07T00:08:21.677Z,-2.69
2023-02-07T00:08:52.502Z,-2.69
2023-02-07T00:09:23.925Z,-2.59
2023-02-07T00:09:54.892Z,-2.59
2023-02-07T00:10:25.436Z,-2.59
2023-02-07T00:10:56.502Z,-2.59
2023-02-07T00:11:27.992Z,-2.83
2023-02-07T00:12:00.110Z,-2.83
2023-02-07T00:13:00.947Z,-2.83
2023-02-07T00:13:31.319Z,-2.83
2023-02-07T00:14:02.569Z,-2.83
2023-02-07T00:14:33.807Z,-2.83
2023-02-07T00:15:05.410Z,-2.83
2023-02-07T00:15:36.707Z,-2.83
2023-02-07T00:16:06.713Z,-2.83
2023-02-07T00:16:39.065Z,-2.83
2023-02-07T00:17:09.210Z,-2.83
2023-02-07T00:17:40.056Z,-2.83
2023-02-07T00:18:10.854Z,-2.83
2023-02-07T00:18:41.914Z,-2.83
2023-02-07T00:19:12.899Z,-2.69
2023-02-07T00:19:43.381Z,-2.83
2023-02-07T00:20:14.975Z,-2.83
2023-02-07T00:20:45.592Z,-2.83
2023-02-07T00:21:16.866Z,-2.83
2023-02-07T00:21:47.990Z,-2.69
2023-02-07T00:22:19.730Z,-2.69
2023-02-07T00:22:51.104Z,-2.69
2023-02-07T00:23:51.696Z,-2.69
2023-02-07T00:24:22.598Z,-2.83
2023-02-07T00:24:54.010Z,-2.83
2023-02-07T00:25:24.679Z,-2.83
2023-02-07T00:25:55.654Z,-2.69
2023-02-07T00:26:26.315Z,-2.69
2023-02-07T00:26:57.940Z,-2.69
2023-02-07T00:27:29.780Z,-2.69
2023-02-07T00:28:01.149Z,-2.69
2023-02-07T00:28:31.188Z,-2.69
2023-02-07T00:29:02.478Z,-2.69
2023-02-07T00:29:32.545Z,-2.69
2023-02-07T00:30:04.481Z,-2.69
2023-02-07T00:30:34.942Z,-2.69
2023-02-07T00:31:05.626Z,-2.93
2023-02-07T00:31:36.782Z,-2.93
2023-02-07T00:32:07.821Z,-2.93
2023-02-07T00:32:39.975Z,-2.93
2023-02-07T00:33:10.212Z,-2.93
2023-02-07T00:33:41.382Z,-2.93
2023-02-07T00:34:11.515Z,-2.93
2023-02-07T00:34:42.807Z,-2.93
2023-02-07T00:35:13.868Z,-3.03
2023-02-07T00:35:44.449Z,-3.03
2023-02-07T00:36:15.599Z,-3.03
2023-02-07T00:36:46.453Z,-3.03
2023-02-07T00:37:17.670Z,-3.03
2023-02-07T00:37:49.850Z,-3.03
2023-02-07T00:38:20.941Z,-3.03
2023-02-07T00:38:50.724Z,-3.03
2023-02-07T00:39:21.608Z,-3.13
2023-02-07T00:39:52.803Z,-3.13
2023-02-07T00:40:23.780Z,-3.13
2023-02-07T00:40:54.699Z,-3.13
2023-02-07T00:41:25.641Z,-3.13
2023-02-07T00:41:56.614Z,-3.13
2023-02-07T00:42:27.455Z,-3.13
2023-02-07T00:42:59.411Z,-3.13
2023-02-07T00:43:30.484Z,-3.13
2023-02-07T00:44:01.038Z,-3.23
2023-02-07T00:44:31.706Z,-3.23
2023-02-07T00:45:02.935Z,-3.23
2023-02-07T00:45:33.619Z,-3.23
2023-02-07T00:46:05.140Z,-3.23
2023-02-07T00:46:35.372Z,-3.23
2023-02-07T00:47:07.390Z,-3.23
2023-02-07T00:47:37.789Z,-3.23
2023-02-07T00:48:09.317Z,-3.23
2023-02-07T00:48:41.077Z,-3.23
2023-02-07T00:49:11.377Z,-3.23
2023-02-07T00:49:41.959Z,-3.23
2023-02-07T00:50:13.156Z,-3.23
2023-02-07T00:50:43.894Z,-3.23
2023-02-07T00:51:14.694Z,-3.23
2023-02-07T00:51:45.615Z,-3.33
2023-02-07T00:52:16.736Z,-3.33
2023-02-07T00:52:47.736Z,-3.33
2023-02-07T00:53:19.281Z,-3.33
2023-02-07T00:53:50.847Z,-3.33
2023-02-07T00:54:20.791Z,-3.33
2023-02-07T00:54:52.166Z,-3.33
2023-02-07T00:55:22.688Z,-3.33
2023-02-07T00:55:54.073Z,-3.33
2023-02-07T00:56:24.720Z,-3.42
2023-02-07T00:56:55.430Z,-3.42
2023-02-07T00:57:26.725Z,-3.42
2023-02-07T00:57:57.749Z,-3.42
2023-02-07T00:58:29.598Z,-3.42
2023-02-07T00:59:00.238Z,-3.42
2023-02-07T00:59:31.034Z,-3.42
2023-02-07T01:00:02.514Z,-3.52
2023-02-07T01:00:32.670Z,-3.52
2023-02-07T01:01:04.086Z,-3.52
2023-02-07T01:01:35.119Z,-3.52
2023-02-07T01:02:05.618Z,-3.52
2023-02-07T01:02:36.822Z,-3.48
2023-02-07T01:03:07.546Z,-3.48
2023-02-07T01:03:39.578Z,-3.48
2023-02-07T01:04:11.045Z,-3.48
2023-02-07T01:04:41.641Z,-3.48
2023-02-07T01:05:11.926Z,-3.48
2023-02-07T01:05:42.669Z,-3.48
2023-02-07T01:06:14.259Z,-3.58
2023-02-07T01:06:44.930Z,-3.58
2023-02-07T01:07:15.410Z,-3.58
2023-02-07T01:07:46.983Z,-3.58
2023-02-07T01:08:44.199Z,-3.58
2023-02-07T01:08:51.705Z,-3.58
2023-02-07T01:09:21.549Z,-3.68
2023-02-07T01:09:54.279Z,-3.68
2023-02-07T01:10:22.033Z,-3.82
2023-02-07T01:10:52.920Z,-3.82
2023-02-07T01:11:24.178Z,-3.82
2023-02-07T01:11:55.477Z,-3.82
2023-02-07T01:12:25.909Z,-3.82
2023-02-07T01:12:57.953Z,-3.82
2023-02-07T01:13:28.780Z,-3.68
2023-02-07T01:13:59.779Z,-3.78
2023-02-07T01:14:30.099Z,-3.78
2023-02-07T01:15:02.244Z,-3.78
2023-02-07T01:15:31.762Z,-3.78
2023-02-07T01:16:03.208Z,-3.78
2023-02-07T01:16:34.125Z,-3.78
2023-02-07T01:17:05.755Z,-3.78
2023-02-07T01:17:36.048Z,-3.88
2023-02-07T01:18:39.607Z,-3.88
2023-02-07T01:19:09.741Z,-3.88
2023-02-07T01:19:42.115Z,-3.88
2023-02-07T01:20:11.646Z,-3.88
2023-02-07T01:20:41.969Z,-3.88
2023-02-07T01:21:19.134Z,-3.98
2023-02-07T01:21:44.033Z,-3.98
2023-02-07T01:22:15.408Z,-3.98
2023-02-07T01:22:46.560Z,-3.98
2023-02-07T01:23:17.585Z,-3.98
2023-02-07T01:23:48.793Z,-3.98
2023-02-07T01:24:24.623Z,-3.98
2023-02-07T01:24:50.977Z,-4.08
2023-02-07T01:25:23.054Z,-4.08
2023-02-07T01:25:52.937Z,-4.08
2023-02-07T01:26:25.318Z,-4.08
2023-02-07T01:26:57.164Z,-4.08
2023-02-07T01:27:26.093Z,-4.08
2023-02-07T01:27:56.293Z,-4.08
2023-02-07T01:28:27.554Z,-3.96
2023-02-07T01:28:58.942Z,-4.06
2023-02-07T01:30:02.392Z,-4.06
2023-02-07T01:30:31.575Z,-4.06
2023-02-07T01:31:02.811Z,-4.06
2023-02-07T01:31:33.643Z,-4.06
2023-02-07T01:32:04.467Z,-4.06
2023-02-07T01:32:35.552Z,-4.06
2023-02-07T01:33:06.526Z,-4.06
2023-02-07T01:33:37.755Z,-4.06
2023-02-07T01:34:20.060Z,-4.06
2023-02-07T01:34:40.652Z,-4.15
2023-02-07T01:35:11.546Z,-4.15
2023-02-07T01:35:42.229Z,-4.15
2023-02-07T01:36:12.658Z,-4.15
2023-02-07T01:36:43.118Z,-4.15
2023-02-07T01:37:14.259Z,-4.15
2023-02-07T01:37:44.919Z,-4.15
2023-02-07T01:38:17.161Z,-4.25
2023-02-07T01:38:47.964Z,-4.25
2023-02-07T01:39:18.955Z,-4.25
2023-02-07T01:39:50.109Z,-4.25
2023-02-07T01:40:21.036Z,-4.25
2023-02-07T01:40:51.817Z,-4.25
2023-02-07T01:41:22.295Z,-4.25
2023-02-07T01:41:53.174Z,-4.35
2023-02-07T01:42:24.318Z,-4.35
2023-02-07T01:42:55.361Z,-4.35
2023-02-07T01:43:26.335Z,-4.35
2023-02-07T01:43:57.556Z,-4.22
2023-02-07T01:44:29.045Z,-4.35
2023-02-07T01:45:01.230Z,-4.22
2023-02-07T01:45:30.847Z,-4.22
2023-02-07T01:46:01.573Z,-4.22
2023-02-07T01:46:32.288Z,-4.22
2023-02-07T01:47:03.255Z,-4.22
2023-02-07T01:47:33.920Z,-4.22
2023-02-07T01:48:05.711Z,-4.22
2023-02-07T01:48:35.918Z,-4.22
2023-02-07T01:49:07.197Z,-4.22
2023-02-07T01:49:38.798Z,-4.22
2023-02-07T01:50:11.229Z,-4.22
2023-02-07T01:50:41.287Z,-4.22
2023-02-07T01:51:14.801Z,-4.22
2023-02-07T01:52:00.379Z,-4.22
2023-02-07T01:52:15.247Z,-4.22
2023-02-07T01:52:43.946Z,-4.22
2023-02-07T01:53:16.656Z,-4.22
2023-02-07T01:53:46.119Z,-4.22
2023-02-07T01:54:17.693Z,-4.22
2023-02-07T01:54:49.208Z,-4.32
2023-02-07T01:55:20.246Z,-4.32
2023-02-07T01:55:50.995Z,-4.32
2023-02-07T01:56:31.205Z,-4.32
2023-02-07T01:56:52.527Z,-4.32
2023-02-07T01:57:23.613Z,-4.32
2023-02-07T01:57:54.352Z,-4.32
2023-02-07T01:58:25.254Z,-4.32
2023-02-07T01:58:57.312Z,-4.32
2023-02-07T01:59:27.457Z,-4.32
2023-02-07T01:59:59.154Z,-4.32
2023-02-07T02:00:35.464Z,-4.32
2023-02-07T02:01:01.638Z,-4.32
2023-02-07T02:01:32.135Z,-4.32
2023-02-07T02:02:34.192Z,-4.32
2023-02-07T02:03:14.136Z,-4.32
2023-02-07T02:03:36.656Z,-4.32
2023-02-07T02:04:06.355Z,-4.32
2023-02-07T02:04:37.315Z,-4.32
2023-02-07T02:05:25.967Z,-4.32
2023-02-07T02:05:41.608Z,-4.32
2023-02-07T02:06:12.278Z,-4.32
2023-02-07T02:06:42.556Z,-4.32
2023-02-07T02:07:13.196Z,-4.32
2023-02-07T02:07:44.089Z,-4.32
2023-02-07T02:08:21.071Z,-4.32
2023-02-07T02:08:46.545Z,-4.32
2023-02-07T02:09:16.980Z,-4.32
2023-02-07T02:09:47.951Z,-4.32
2023-02-07T02:10:19.913Z,-4.32
2023-02-07T02:10:50.540Z,-4.42
2023-02-07T02:11:21.692Z,-4.42
2023-02-07T02:11:52.302Z,-4.42
2023-02-07T02:12:23.266Z,-4.42
2023-02-07T02:13:10.884Z,-4.42
2023-02-07T02:13:25.178Z,-4.52
2023-02-07T02:14:26.116Z,-4.52
2023-02-07T02:14:57.487Z,-4.52
2023-02-07T02:15:29.687Z,-4.52
2023-02-07T02:16:00.843Z,-4.52
2023-02-07T02:16:31.071Z,-4.62
2023-02-07T02:17:02.149Z,-4.62
2023-02-07T02:17:32.535Z,-4.62
2023-02-07T02:18:05.100Z,-4.62
2023-02-07T02:18:34.921Z,-4.62
2023-02-07T02:19:05.387Z,-4.62
2023-02-07T02:19:36.449Z,-4.62
2023-02-07T02:20:07.788Z,-4.62
2023-02-07T02:20:38.862Z,-4.62
2023-02-07T02:21:10.914Z,-4.72
2023-02-07T02:22:12.344Z,-4.72
2023-02-07T02:22:42.770Z,-4.72
2023-02-07T02:23:13.667Z,-4.72
2023-02-07T02:23:44.683Z,-4.72
2023-02-07T02:24:15.573Z,-4.72
2023-02-07T02:24:46.817Z,-4.82
2023-02-07T02:25:17.557Z,-4.82
2023-02-07T02:25:48.212Z,-4.82
2023-02-07T02:26:21.022Z,-4.82
2023-02-07T02:26:51.838Z,-4.82
2023-02-07T02:27:52.883Z,-4.92
2023-02-07T02:28:23.273Z,-4.92
2023-02-07T02:28:54.200Z,-4.92
2023-02-07T02:29:25.289Z,-4.92
2023-02-07T02:29:56.028Z,-4.92
2023-02-07T02:30:27.429Z,-4.92
2023-02-07T02:30:59.681Z,-5.02
2023-02-07T02:31:30.692Z,-5.02
2023-02-07T02:32:02.318Z,-5.02
2023-02-07T02:32:32.449Z,-5.02
2023-02-07T02:33:23.656Z,-5.02
2023-02-07T02:33:33.904Z,-5.02
2023-02-07T02:34:04.714Z,-5.02
2023-02-07T02:34:36.109Z,-5.02
2023-02-07T02:35:07.109Z,-5.02
2023-02-07T02:35:37.763Z,-5.02
2023-02-07T02:36:49.522Z,-5.02
2023-02-07T02:37:13.092Z,-5.02
2023-02-07T02:37:43.130Z,-5.02
2023-02-07T02:38:15.068Z,-4.92
2023-02-07T02:38:43.553Z,-4.92
2023-02-07T02:39:21.123Z,-4.92
2023-02-07T02:39:45.197Z,-4.92
2023-02-07T02:40:16.636Z,-4.92
2023-02-07T02:40:47.168Z,-4.92
2023-02-07T02:41:18.837Z,-4.92
2023-02-07T02:41:51.154Z,-4.82
2023-02-07T02:42:21.403Z,-4.82
2023-02-07T02:42:52.627Z,-4.82
2023-02-07T02:43:23.775Z,-4.82
2023-02-07T02:43:53.316Z,-4.82
2023-02-07T02:44:24.548Z,-4.82
2023-02-07T02:44:55.414Z,-4.92
2023-02-07T02:45:26.618Z,-4.92
2023-02-07T02:45:57.628Z,-4.92
2023-02-07T02:46:28.798Z,-4.92
2023-02-07T02:47:01.536Z,-4.92
2023-02-07T02:47:31.533Z,-4.92
2023-02-07T02:48:03.047Z,-4.92
2023-02-07T02:48:33.503Z,-4.92
2023-02-07T02:49:03.829Z,-4.92
2023-02-07T02:49:34.259Z,-4.92
2023-02-07T02:50:05.660Z,-4.92
2023-02-07T02:50:36.261Z,-4.92
2023-02-07T02:51:07.919Z,-4.92
2023-02-07T02:52:11.170Z,-4.92
2023-02-07T02:52:50.659Z,-4.92
2023-02-07T02:53:14.768Z,-4.92
2023-02-07T02:53:42.937Z,-4.92
2023-02-07T02:54:49.566Z,-4.82
2023-02-07T02:55:15.166Z,-4.82
2023-02-07T02:55:46.297Z,-4.82
2023-02-07T02:56:17.148Z,-4.82
2023-02-07T02:56:48.046Z,-4.92
2023-02-07T02:57:20.170Z,-4.92
2023-02-07T02:57:51.437Z,-4.92
2023-02-07T02:58:22.757Z,-4.92
2023-02-07T02:58:52.967Z,-4.92
2023-02-07T02:59:23.884Z,-4.92
2023-02-07T02:59:55.160Z,-4.92
2023-02-07T03:00:36.244Z,-4.92
2023-02-07T03:01:42.820Z,-4.92
2023-02-07T03:01:58.135Z,-4.92
2023-02-07T03:02:29.666Z,-4.92
2023-02-07T03:03:00.808Z,-4.92
2023-02-07T03:03:32.034Z,-4.92
2023-02-07T03:04:02.956Z,-4.92
2023-02-07T03:04:33.292Z,-4.92
2023-02-07T03:05:04.698Z,-4.92
2023-02-07T03:05:54.132Z,-4.92
2023-02-07T03:06:06.575Z,-4.92
2023-02-07T03:06:38.094Z,-5.02
2023-02-07T03:07:09.162Z,-5.02
2023-02-07T03:07:40.034Z,-5.02
2023-02-07T03:08:12.943Z,-5.02
2023-02-07T03:08:42.667Z,-5.02
2023-02-07T03:09:14.280Z,-5.02
2023-02-07T03:09:43.637Z,-5.02
2023-02-07T03:10:45.747Z,-5.02
2023-02-07T03:11:16.888Z,-5.02
2023-02-07T03:11:47.265Z,-5.02
2023-02-07T03:12:18.569Z,-5.12
2023-02-07T03:12:49.726Z,-5.12
2023-02-07T03:13:20.851Z,-5.12
2023-02-07T03:13:52.446Z,-5.12
2023-02-07T03:14:23.370Z,-5.12
2023-02-07T03:14:53.760Z,-5.12
2023-02-07T03:15:25.315Z,-5.12
2023-02-07T03:15:55.197Z,-5.12
2023-02-07T03:16:26.287Z,-5.22
2023-02-07T03:16:58.346Z,-5.22
2023-02-07T03:17:28.435Z,-5.22
2023-02-07T03:17:59.726Z,-5.22
2023-02-07T03:18:31.453Z,-5.22
2023-02-07T03:19:02.602Z,-5.22
2023-02-07T03:19:33.016Z,-5.22
2023-02-07T03:20:04.313Z,-5.22
2023-02-07T03:20:34.543Z,-5.22
2023-02-07T03:21:05.627Z,-5.22
2023-02-07T03:21:36.317Z,-5.22
2023-02-07T03:22:07.423Z,-5.22
2023-02-07T03:22:38.154Z,-5.22
2023-02-07T03:23:11.539Z,-5.22
2023-02-07T03:23:41.655Z,-5.22
2023-02-07T03:24:12.883Z,-5.22
2023-02-07T03:25:13.891Z,-5.12
2023-02-07T03:25:44.999Z,-5.12
2023-02-07T03:26:15.224Z,-5.12
2023-02-07T03:26:46.388Z,-5.12
2023-02-07T03:27:17.308Z,-5.12
2023-02-07T03:27:48.388Z,-5.12
2023-02-07T03:28:19.590Z,-5.12
2023-02-07T03:28:51.638Z,-5.12
2023-02-07T03:29:22.335Z,-5.12
2023-02-07T03:29:53.449Z,-5.12
2023-02-07T03:30:24.775Z,-5.12
2023-02-07T03:30:54.534Z,-5.12
2023-02-07T03:31:25.602Z,-5.12
2023-02-07T03:31:56.262Z,-5.12
2023-02-07T03:32:27.810Z,-5.12
2023-02-07T03:32:58.698Z,-5.12
2023-02-07T03:33:33.994Z,-5.12
2023-02-07T03:34:01.584Z,-5.12
2023-02-07T03:34:32.162Z,-5.02
2023-02-07T03:35:01.769Z,-5.02
2023-02-07T03:35:33.721Z,-5.02
2023-02-07T03:36:04.951Z,-5.02
2023-02-07T03:36:36.111Z,-5.02
2023-02-07T03:37:06.656Z,-5.02
2023-02-07T03:37:37.690Z,-5.02
2023-02-07T03:38:08.789Z,-5.02
2023-02-07T03:38:39.851Z,-5.02
2023-02-07T03:39:12.591Z,-5.02
2023-02-07T03:39:42.474Z,-5.02
2023-02-07T03:40:12.863Z,-5.02
2023-02-07T03:40:43.905Z,-5.02
2023-02-07T03:41:32.298Z,-5.02
2023-02-07T03:41:45.467Z,-5.02
2023-02-07T03:42:16.603Z,-5.02
2023-02-07T03:42:47.927Z,-5.02
2023-02-07T03:43:18.593Z,-5.02
2023-02-07T03:43:50.084Z,-5.02
2023-02-07T03:44:22.048Z,-5.02
2023-02-07T03:44:53.118Z,-5.02
2023-02-07T03:45:24.243Z,-5.02
2023-02-07T03:45:54.579Z,-5.02
2023-02-07T03:46:24.755Z,-5.02
2023-02-07T03:46:55.950Z,-5.02
2023-02-07T03:47:26.497Z,-5.02
2023-02-07T03:47:57.326Z,-5.02
2023-02-07T03:48:28.489Z,-5.02
2023-02-07T03:48:59.970Z,-5.02
2023-02-07T03:49:32.036Z,-5.02
2023-02-07T03:50:02.604Z,-5.02
2023-02-07T03:50:32.773Z,-5.02
2023-02-07T03:51:04.212Z,-5.02
2023-02-07T03:51:35.053Z,-5.02
2023-02-07T03:52:06.058Z,-5.02
2023-02-07T03:52:36.541Z,-5.02
2023-02-07T03:53:07.964Z,-5.02
2023-02-07T03:53:38.535Z,-5.02
2023-02-07T03:54:11.331Z,-5.02
2023-02-07T03:54:41.961Z,-5.02
2023-02-07T03:55:13.014Z,-5.02
2023-02-07T03:55:43.172Z,-5.02
2023-02-07T03:56:33.265Z,-5.12
2023-02-07T03:56:45.105Z,-5.12
2023-02-07T03:57:17.018Z,-5.12
2023-02-07T03:57:47.001Z,-5.12
2023-02-07T03:58:17.920Z,-5.12
2023-02-07T03:58:49.156Z,-5.12
2023-02-07T03:59:26.969Z,-5.12
2023-02-07T03:59:52.886Z,-5.12
2023-02-07T04:00:24.284Z,-5.12
2023-02-07T04:00:54.006Z,-5.12
2023-02-07T04:01:25.083Z,-5.12
2023-02-07T04:01:55.609Z,-5.12
2023-02-07T04:02:26.937Z,-5.02
2023-02-07T04:02:57.336Z,-5.02
2023-02-07T04:03:27.654Z,-5.02
2023-02-07T04:04:00.117Z,-5.02
2023-02-07T04:04:30.339Z,-5.02
2023-02-07T04:05:02.943Z,-5.02
2023-02-07T04:05:32.288Z,-5.02
2023-02-07T04:06:04.456Z,-5.02
2023-02-07T04:06:35.002Z,-5.02
2023-02-07T04:07:05.167Z,-5.02
2023-02-07T04:07:36.403Z,-5.02
2023-02-07T04:08:08.068Z,-5.02
2023-02-07T04:08:38.630Z,-5.02
2023-02-07T04:09:11.641Z,-5.02
2023-02-07T04:09:39.702Z,-5.02
2023-02-07T04:10:13.714Z,-5.02
2023-02-07T04:10:43.175Z,-4.92
2023-02-07T04:11:14.578Z,-4.92
2023-02-07T04:11:44.403Z,-4.92
2023-02-07T04:12:15.701Z,-4.92
2023-02-07T04:12:46.112Z,-4.92
2023-02-07T04:13:17.223Z,-4.92
2023-02-07T04:13:47.750Z,-4.92
2023-02-07T04:14:18.786Z,-4.92
2023-02-07T04:14:50.113Z,-4.92
2023-02-07T04:15:24.296Z,-4.92
2023-02-07T04:15:53.410Z,-4.92
2023-02-07T04:16:24.687Z,-4.92
2023-02-07T04:16:55.653Z,-4.92
2023-02-07T04:17:25.934Z,-4.92
2023-02-07T04:17:56.666Z,-4.92
2023-02-07T04:18:26.930Z,-4.92
2023-02-07T04:18:57.776Z,-4.92
2023-02-07T04:19:28.991Z,-4.92
2023-02-07T04:20:00.606Z,-4.92
2023-02-07T04:20:32.071Z,-4.92
2023-02-07T04:21:03.354Z,-4.92
2023-02-07T04:21:35.802Z,-4.92
2023-02-07T04:22:05.695Z,-4.92
2023-02-07T04:22:35.089Z,-4.92
2023-02-07T04:23:06.740Z,-4.92
2023-02-07T04:23:36.648Z,-4.92
2023-02-07T04:24:08.147Z,-4.92
2023-02-07T04:24:39.352Z,-5.02
2023-02-07T04:25:10.941Z,-5.02
2023-02-07T04:25:43.400Z,-5.02
2023-02-07T04:26:29.152Z,-5.02
2023-02-07T04:27:00.274Z,-5.02
2023-02-07T04:27:15.557Z,-5.02
2023-02-07T04:27:46.245Z,-5.02
2023-02-07T04:28:16.398Z,-5.02
2023-02-07T04:28:48.023Z,-5.02
2023-02-07T04:29:17.934Z,-5.02
2023-02-07T04:29:48.937Z,-5.02
2023-02-07T04:30:23.337Z,-5.02
2023-02-07T04:30:53.386Z,-5.02
2023-02-07T04:31:23.784Z,-5.02
2023-02-07T04:31:54.580Z,-5.02
2023-02-07T04:32:25.399Z,-5.02
2023-02-07T04:32:56.747Z,-5.02
2023-02-07T04:33:26.584Z,-5.02
2023-02-07T04:33:57.332Z,-4.92
2023-02-07T04:34:27.762Z,-4.92
2023-02-07T04:34:59.118Z,-4.92
2023-02-07T04:35:30.085Z,-4.92
2023-02-07T04:36:01.951Z,-4.92
2023-02-07T04:36:32.725Z,-4.92
2023-02-07T04:37:04.158Z,-4.92
2023-02-07T04:37:34.677Z,-4.92
2023-02-07T04:38:05.071Z,-4.92
2023-02-07T04:38:35.742Z,-4.92
2023-02-07T04:39:06.817Z,-4.92
2023-02-07T04:40:10.091Z,-4.92
2023-02-07T04:40:39.784Z,-4.92
2023-02-07T04:41:11.575Z,-4.92
2023-02-07T04:41:42.948Z,-4.92
2023-02-07T04:42:14.645Z,-4.92
2023-02-07T04:42:45.232Z,-4.92
2023-02-07T04:43:15.989Z,-4.92
2023-02-07T04:43:46.823Z,-4.92
2023-02-07T04:44:17.294Z,-4.92
2023-02-07T04:44:47.881Z,-4.92
2023-02-07T04:45:19.611Z,-4.92
2023-02-07T04:46:21.663Z,-4.92
2023-02-07T04:46:53.554Z,-4.92
2023-02-07T04:47:24.657Z,-4.92
2023-02-07T04:47:55.681Z,-4.92
2023-02-07T04:48:26.193Z,-4.92
2023-02-07T04:48:56.473Z,-4.92
2023-02-07T04:49:26.855Z,-4.92
2023-02-07T04:49:58.055Z,-4.92
2023-02-07T04:50:30.039Z,-4.92
2023-02-07T04:51:00.096Z,-4.92
2023-02-07T04:51:31.809Z,-4.92
2023-02-07T04:52:04.073Z,-4.92
2023-02-07T04:53:05.628Z,-4.92
2023-02-07T04:53:35.662Z,-4.92
2023-02-07T04:54:36.978Z,-4.92
2023-02-07T04:55:08.414Z,-4.92
2023-02-07T04:55:39.460Z,-4.92
2023-02-07T04:56:10.126Z,-4.92
2023-02-07T04:56:41.433Z,-4.92
2023-02-07T04:57:44.387Z,-4.92
2023-02-07T04:58:15.128Z,-5.02
2023-02-07T04:58:48.854Z,-5.02
2023-02-07T04:59:22.145Z,-5.02
2023-02-07T04:59:47.931Z,-5.02
2023-02-07T05:00:20.224Z,-5.02
2023-02-07T05:00:50.144Z,-5.02
2023-02-07T05:01:21.353Z,-4.92
2023-02-07T05:02:22.660Z,-4.92
2023-02-07T05:02:54.261Z,-5.02
2023-02-07T05:03:24.324Z,-5.02
2023-02-07T05:04:13.560Z,-5.02
2023-02-07T05:04:26.259Z,-5.02
2023-02-07T05:04:58.128Z,-5.02
2023-02-07T05:05:28.051Z,-5.02
2023-02-07T05:06:31.664Z,-5.02
2023-02-07T05:07:03.502Z,-5.02
2023-02-07T05:07:49.370Z,-5.02
2023-02-07T05:08:03.695Z,-5.02
2023-02-07T05:08:34.626Z,-5.02
2023-02-07T05:09:04.938Z,-5.02
2023-02-07T05:09:36.833Z,-5.02
2023-02-07T05:10:08.340Z,-5.02
2023-02-07T05:10:39.023Z,-5.02
2023-02-07T05:11:11.200Z,-5.02
2023-02-07T05:11:40.923Z,-5.02
2023-02-07T05:12:13.204Z,-5.02
2023-02-07T05:12:43.095Z,-5.02
2023-02-07T05:13:14.329Z,-5.02
2023-02-07T05:13:44.655Z,-5.02
2023-02-07T05:14:15.189Z,-5.02
2023-02-07T05:14:46.637Z,-5.02
2023-02-07T05:15:18.097Z,-5.02
2023-02-07T05:15:48.038Z,-5.02
2023-02-07T05:16:19.637Z,-5.02
2023-02-07T05:16:52.167Z,-5.02
2023-02-07T05:17:22.506Z,-5.02
2023-02-07T05:17:53.388Z,-5.12
2023-02-07T05:18:23.893Z,-5.12
2023-02-07T05:18:54.639Z,-5.12
2023-02-07T05:19:26.722Z,-5.12
2023-02-07T05:19:56.939Z,-5.12
2023-02-07T05:20:27.900Z,-5.22
2023-02-07T05:20:58.605Z,-5.22
2023-02-07T05:21:29.617Z,-5.22
2023-02-07T05:22:01.859Z,-5.22
2023-02-07T05:22:32.116Z,-5.22
2023-02-07T05:23:02.967Z,-5.22
2023-02-07T05:23:33.822Z,-5.32
2023-02-07T05:24:04.814Z,-5.32
2023-02-07T05:24:53.717Z,-5.32
2023-02-07T05:25:07.185Z,-5.32
2023-02-07T05:25:37.906Z,-5.32
2023-02-07T05:26:09.573Z,-5.32
2023-02-07T05:26:40.628Z,-5.32
2023-02-07T05:27:11.835Z,-5.42
2023-02-07T05:27:42.880Z,-5.42
2023-02-07T05:28:12.938Z,-5.42
2023-02-07T05:28:43.339Z,-5.42
2023-02-07T05:29:14.618Z,-5.42
2023-02-07T05:29:45.553Z,-5.42
2023-02-07T05:30:17.315Z,-5.52
2023-02-07T05:30:48.683Z,-5.52
2023-02-07T05:31:19.091Z,-5.52
2023-02-07T05:31:51.477Z,-5.52
2023-02-07T05:32:22.106Z,-5.52
2023-02-07T05:33:23.363Z,-5.52
2023-02-07T05:33:53.449Z,-5.52
2023-02-07T05:34:24.777Z,-5.52
2023-02-07T05:34:55.247Z,-5.52
2023-02-07T05:35:26.256Z,-5.62
2023-02-07T05:35:58.276Z,-5.62
2023-02-07T05:36:28.196Z,-5.62
2023-02-07T05:36:59.862Z,-5.62
2023-02-07T05:38:03.958Z,-5.62
2023-02-07T05:38:33.916Z,-5.62
2023-02-07T05:39:04.438Z,-5.62
2023-02-07T05:39:34.124Z,-5.62
2023-02-07T05:40:06.336Z,-5.62
2023-02-07T05:40:36.047Z,-5.62
2023-02-07T05:41:07.599Z,-5.72
2023-02-07T05:41:39.146Z,-5.72
2023-02-07T05:42:10.007Z,-5.72
2023-02-07T05:42:40.903Z,-5.72
2023-02-07T05:43:11.713Z,-5.72
2023-02-07T05:43:41.792Z,-5.72
2023-02-07T05:44:13.553Z,-5.72
2023-02-07T05:44:44.456Z,-5.72
2023-02-07T05:45:15.566Z,-5.72
2023-02-07T05:45:46.294Z,-5.72
2023-02-07T05:46:17.975Z,-5.72
2023-02-07T05:46:50.687Z,-5.72
2023-02-07T05:47:23.399Z,-5.72
2023-02-07T05:47:52.506Z,-5.82
2023-02-07T05:48:21.248Z,-5.82
2023-02-07T05:48:52.082Z,-5.82
2023-02-07T05:49:23.185Z,-5.82
2023-02-07T05:49:54.387Z,-5.82
2023-02-07T05:50:31.917Z,-5.82
2023-02-07T05:50:56.126Z,-5.91
2023-02-07T05:51:27.784Z,-5.91
2023-02-07T05:51:58.649Z,-5.91
2023-02-07T05:52:30.640Z,-5.91
2023-02-07T05:53:03.046Z,-5.91
2023-02-07T05:53:32.213Z,-5.91
2023-02-07T06:05:16.569Z,-6.01
2023-02-07T06:06:03.484Z,-6.11
2023-02-07T06:06:33.989Z,-6.11
2023-02-07T06:07:18.955Z,-6.11
2023-02-07T06:07:49.984Z,-6.21
2023-02-07T06:08:20.737Z,-6.21
2023-02-07T06:08:51.686Z,-6.21
2023-02-07T06:09:22.269Z,-6.21
2023-02-07T06:09:54.686Z,-6.21
2023-02-07T06:10:24.657Z,-6.21
2023-02-07T06:10:55.720Z,-6.21
2023-02-07T06:11:43.779Z,-6.21
2023-02-07T06:11:57.379Z,-6.21
2023-02-07T06:12:28.267Z,-6.21
2023-02-07T06:12:59.337Z,-6.21
2023-02-07T06:13:30.752Z,-6.21
2023-02-07T06:14:01.842Z,-6.21
2023-02-07T06:14:32.798Z,-6.21
2023-02-07T06:15:05.297Z,-6.21
2023-02-07T06:15:34.748Z,-6.21
2023-02-07T06:16:05.868Z,-6.21
2023-02-07T06:16:36.473Z,-6.21
2023-02-07T06:17:07.234Z,-6.21
2023-02-07T06:17:38.214Z,-6.21
2023-02-07T06:18:09.882Z,-6.21
2023-02-07T06:18:41.293Z,-6.21
2023-02-07T06:19:11.673Z,-6.21
2023-02-07T06:19:43.322Z,-6.21
2023-02-07T06:20:18.923Z,-6.21
2023-02-07T06:20:46.705Z,-6.21
2023-02-07T06:21:15.372Z,-6.21
2023-02-07T06:21:47.015Z,-6.21
2023-02-07T06:22:17.271Z,-6.21
2023-02-07T06:23:19.429Z,-6.21
2023-02-07T06:23:51.047Z,-6.21
2023-02-07T06:24:57.759Z,-6.21
2023-02-07T06:25:24.684Z,-6.31
2023-02-07T06:25:56.597Z,-6.31
2023-02-07T06:26:25.890Z,-6.31
2023-02-07T06:26:56.852Z,-6.31
2023-02-07T06:27:33.536Z,-6.31
2023-02-07T06:28:14.772Z,-6.31
2023-02-07T06:28:29.468Z,-6.31
2023-02-07T06:29:01.883Z,-6.31
2023-02-07T06:29:32.020Z,-6.41
2023-02-07T06:30:04.244Z,-6.41
2023-02-07T06:30:37.543Z,-6.51
2023-02-07T06:31:05.414Z,-6.51
2023-02-07T06:31:36.060Z,-6.51
2023-02-07T06:32:06.319Z,-6.51
2023-02-07T06:32:37.183Z,-6.61
2023-02-07T06:33:08.156Z,-6.61
2023-02-07T06:33:40.397Z,-6.61
2023-02-07T06:34:10.733Z,-6.61
2023-02-07T06:34:41.239Z,-6.71
2023-02-07T06:35:14.095Z,-6.71
2023-02-07T06:35:44.965Z,-6.71
2023-02-07T06:36:16.207Z,-6.71
2023-02-07T06:36:45.392Z,-6.71
2023-02-07T06:37:17.618Z,-6.71
2023-02-07T06:37:51.291Z,-6.71
2023-02-07T06:38:21.093Z,-6.71
2023-02-07T06:38:49.437Z,-6.71
2023-02-07T06:39:20.854Z,-6.81
2023-02-07T06:39:51.655Z,-6.81
2023-02-07T06:40:25.226Z,-6.81
2023-02-07T06:40:54.317Z,-6.81
2023-02-07T06:41:25.771Z,-6.81
2023-02-07T06:41:55.627Z,-6.81
2023-02-07T06:42:26.813Z,-6.81
2023-02-07T06:42:57.552Z,-6.81
2023-02-07T06:43:29.400Z,-6.81
2023-02-07T06:43:59.482Z,-6.81
2023-02-07T06:44:30.750Z,-6.91
2023-02-07T06:45:01.786Z,-6.91
2023-02-07T06:45:32.304Z,-6.91
2023-02-07T06:46:03.868Z,-6.91
2023-02-07T06:46:34.690Z,-6.91
2023-02-07T06:47:05.140Z,-6.81
2023-02-07T06:47:36.200Z,-6.81
2023-02-07T06:48:25.360Z,-6.81
2023-02-07T06:48:38.409Z,-6.81
2023-02-07T06:49:09.696Z,-6.81
2023-02-07T06:49:40.827Z,-6.81
2023-02-07T06:50:12.173Z,-6.81
2023-02-07T06:50:42.852Z,-6.81
2023-02-07T06:51:14.152Z,-6.81
2023-02-07T06:51:46.030Z,-6.81
2023-02-07T06:52:15.613Z,-6.81
2023-02-07T06:52:46.316Z,-6.81
2023-02-07T06:53:17.680Z,-6.81
2023-02-07T06:53:48.188Z,-6.81
2023-02-07T06:54:19.035Z,-6.81
2023-02-07T06:54:50.328Z,-6.81
2023-02-07T06:55:21.340Z,-6.81
2023-02-07T06:55:52.628Z,-6.81
2023-02-07T06:56:24.217Z,-6.81
2023-02-07T06:56:55.272Z,-6.81
2023-02-07T06:57:25.553Z,-6.81
2023-02-07T06:58:27.378Z,-6.81
2023-02-07T06:58:58.269Z,-6.81
2023-02-07T06:59:29.141Z,-6.91
2023-02-07T07:00:01.006Z,-6.91
2023-02-07T07:00:32.495Z,-6.91
2023-02-07T07:01:02.678Z,-6.91
2023-02-07T07:01:34.191Z,-6.91
2023-02-07T07:02:05.400Z,-6.91
2023-02-07T07:02:35.489Z,-6.91
2023-02-07T07:03:06.797Z,-6.91
2023-02-07T07:03:37.489Z,-6.91
2023-02-07T07:04:08.882Z,-6.91
2023-02-07T07:04:39.744Z,-6.91
2023-02-07T07:05:11.151Z,-6.91